createdAt,value
2022-08-20T00:02:19.445Z,100265.48
2022-08-20T00:04:51.147Z,100263.85
2022-08-20T00:07:22.773Z,100262.45
2022-08-20T00:09:54.471Z,100263.11
2022-08-20T00:12:26.076Z,100258.15
2022-08-20T00:14:57.880Z,100257.67
2022-08-20T00:17:32.851Z,100258.25
2022-08-20T00:20:08.240Z,100263.46
2022-08-20T00:22:39.972Z,100269.46
2022-08-20T00:25:13.779Z,100269.11
2022-08-20T00:27:45.536Z,100262.66
2022-08-20T00:30:20.926Z,100264.49
2022-08-20T00:32:54.818Z,100273.22
2022-08-20T00:35:30.841Z,100281.64
2022-08-20T00:38:02.790Z,100290.13
2022-08-20T00:40:38.564Z,100291.83
2022-08-20T00:43:29.033Z,100295.00
2022-08-20T00:45:59.605Z,100300.17
2022-08-20T00:48:33.637Z,100307.31
2022-08-20T00:51:15.233Z,100312.44
2022-08-20T00:53:48.107Z,100310.05
2022-08-20T00:56:19.796Z,100306.16
2022-08-20T00:58:53.672Z,100305.38
2022-08-20T01:01:25.473Z,100309.62
2022-08-20T01:03:58.317Z,100316.49
2022-08-20T01:06:30.006Z,100328.33
2022-08-20T01:09:02.291Z,100337.29
2022-08-20T01:11:37.108Z,100338.73
2022-08-20T01:14:31.955Z,100340.78
2022-08-20T01:17:07.779Z,100340.63
2022-08-20T01:19:43.070Z,100338.91
2022-08-20T01:22:36.356Z,100339.81
2022-08-20T01:25:13.927Z,100335.63
2022-08-20T01:27:46.689Z,100338.09
2022-08-20T01:30:24.498Z,100333.92
2022-08-20T01:32:56.299Z,100332.63
2022-08-20T01:35:29.409Z,100335.73
2022-08-20T01:38:01.250Z,100331.14
2022-08-20T01:40:50.308Z,100327.56
2022-08-20T01:43:23.750Z,100325.98
2022-08-20T01:45:56.021Z,100323.85
2022-08-20T01:48:28.484Z,100319.27
2022-08-20T01:51:04.945Z,100317.56
2022-08-20T01:53:39.583Z,100316.59
2022-08-20T01:56:15.336Z,100318.58
2022-08-20T01:58:54.848Z,100314.27
2022-08-20T02:01:46.912Z,100312.01
2022-08-20T02:04:19.180Z,100310.55
2022-08-20T02:06:56.638Z,100304.48
2022-08-20T02:09:32.279Z,100301.96
2022-08-20T02:12:06.007Z,100300.61
2022-08-20T02:14:40.962Z,100298.88
2022-08-20T02:17:14.320Z,100299.08
2022-08-20T02:19:50.133Z,100302.05
2022-08-20T02:22:25.693Z,100306.27
2022-08-20T02:24:57.547Z,100312.04
2022-08-20T02:27:29.247Z,100315.76
2022-08-20T02:30:00.909Z,100315.59
2022-08-20T02:32:34.321Z,100312.53
2022-08-20T02:35:08.658Z,100310.29
2022-08-20T02:37:41.618Z,100305.07
2022-08-20T02:40:19.093Z,100303.45
2022-08-20T02:43:03.258Z,100299.50
2022-08-20T02:45:37.467Z,100298.77
2022-08-20T02:48:09.227Z,100293.02
2022-08-20T02:50:44.016Z,100289.72
2022-08-20T02:53:15.899Z,100284.16
2022-08-20T02:55:47.965Z,100283.85
2022-08-20T02:58:20.851Z,100284.24
2022-08-20T03:00:53.207Z,100276.65
2022-08-20T03:03:25.285Z,100276.10
2022-08-20T03:05:59.059Z,100272.60
2022-08-20T03:08:31.419Z,100260.44
2022-08-20T03:11:03.352Z,100263.58
2022-08-20T03:13:35.442Z,100266.19
2022-08-20T03:16:08.828Z,100267.52
2022-08-20T03:18:42.438Z,100263.13
2022-08-20T03:21:15.003Z,100262.34
2022-08-20T03:23:46.730Z,100259.37
2022-08-20T03:26:18.516Z,100254.92
2022-08-20T03:28:50.218Z,100249.20
2022-08-20T03:31:22.043Z,100245.83
2022-08-20T03:33:53.976Z,100247.20
2022-08-20T03:36:28.330Z,100249.98
2022-08-20T03:39:02.447Z,100250.41
2022-08-20T03:41:34.356Z,100249.40
2022-08-20T03:44:07.152Z,100252.14
2022-08-20T03:46:39.668Z,100250.44
2022-08-20T03:49:11.326Z,100251.14
2022-08-20T03:51:56.162Z,100252.79
2022-08-20T03:54:31.911Z,100254.73
2022-08-20T03:57:12.735Z,100257.38
2022-08-20T03:59:45.683Z,100260.23
2022-08-20T04:02:21.684Z,100264.98
2022-08-20T04:04:55.112Z,100268.80
2022-08-20T04:07:27.932Z,100270.85
2022-08-20T04:10:00.098Z,100272.23
2022-08-20T04:12:32.551Z,100268.41
2022-08-20T04:15:09.628Z,100270.27
2022-08-20T04:17:44.109Z,100274.55
2022-08-20T04:20:23.133Z,100279.78
2022-08-20T04:22:59.333Z,100274.39
2022-08-20T04:25:35.818Z,100270.48
2022-08-20T04:28:14.240Z,100269.79
2022-08-20T04:30:51.908Z,100269.16
2022-08-20T04:33:33.687Z,100260.61
2022-08-20T04:36:07.759Z,100259.66
2022-08-20T04:38:48.069Z,100260.31
2022-08-20T04:41:24.252Z,100257.70
2022-08-20T04:43:57.161Z,100257.91
2022-08-20T04:46:32.778Z,100258.52
2022-08-20T04:49:04.736Z,100264.18
2022-08-20T04:51:37.154Z,100267.81
2022-08-20T04:54:08.846Z,100266.66
2022-08-20T04:56:40.586Z,100263.27
2022-08-20T04:59:12.323Z,100257.86
2022-08-20T05:01:44.039Z,100266.63
2022-08-20T05:04:15.787Z,100276.23
2022-08-20T05:06:49.609Z,100281.73
2022-08-20T05:09:21.170Z,100283.51
2022-08-20T05:11:52.801Z,100282.41
2022-08-20T05:14:24.470Z,100285.05
2022-08-20T05:16:57.627Z,100289.58
2022-08-20T05:19:29.290Z,100299.90
2022-08-20T05:22:01.649Z,100303.69
2022-08-20T05:24:33.429Z,100299.01
2022-08-20T05:27:05.307Z,100299.28
2022-08-20T05:29:37.103Z,100298.94
2022-08-20T05:32:09.343Z,100301.88
2022-08-20T05:34:41.091Z,100304.98
2022-08-20T05:37:12.681Z,100309.30
2022-08-20T05:39:44.315Z,100306.46
2022-08-20T05:42:16.015Z,100307.22
2022-08-20T05:44:47.798Z,100306.55
2022-08-20T05:47:19.356Z,100306.25
2022-08-20T05:49:53.462Z,100303.05
2022-08-20T05:52:25.413Z,100304.38
2022-08-20T05:54:57.065Z,100306.54
2022-08-20T05:57:28.723Z,100303.34
2022-08-20T06:00:07.606Z,100303.64
2022-08-20T06:02:57.276Z,100311.00
2022-08-20T06:05:29.283Z,100315.91
2022-08-20T06:08:07.792Z,100317.27
2022-08-20T06:10:42.666Z,100315.05
2022-08-20T06:13:15.089Z,100311.78
2022-08-20T06:15:46.767Z,100310.40
2022-08-20T06:18:27.587Z,100316.20
2022-08-20T06:21:00.563Z,100321.30
2022-08-20T06:23:45.538Z,100330.66
2022-08-20T06:26:28.948Z,100333.82
2022-08-20T06:29:02.789Z,100330.98
2022-08-20T06:31:35.116Z,100329.67
2022-08-20T06:34:07.482Z,100329.65
2022-08-20T06:36:39.156Z,100331.73
2022-08-20T06:39:10.758Z,100328.61
2022-08-20T06:41:42.738Z,100329.34
2022-08-20T06:44:15.277Z,100329.55
2022-08-20T06:46:47.119Z,100335.65
2022-08-20T06:49:19.025Z,100329.56
2022-08-20T06:51:51.997Z,100330.17
2022-08-20T06:54:28.600Z,100327.44
2022-08-20T06:57:01.205Z,100323.27
2022-08-20T06:59:33.078Z,100323.39
2022-08-20T07:02:05.931Z,100323.31
2022-08-20T07:04:37.776Z,100318.29
2022-08-20T07:07:16.367Z,100314.88
2022-08-20T07:09:48.081Z,100324.64
2022-08-20T07:12:19.770Z,100323.45
2022-08-20T07:14:51.553Z,100324.66
2022-08-20T07:17:24.241Z,100331.77
2022-08-20T07:19:56.189Z,100331.39
2022-08-20T07:22:27.881Z,100332.91
2022-08-20T07:24:59.538Z,100332.20
2022-08-20T07:27:31.246Z,100332.69
2022-08-20T07:30:21.192Z,100334.38
2022-08-20T07:32:52.882Z,100335.75
2022-08-20T07:35:25.109Z,100333.10
2022-08-20T07:37:56.966Z,100337.68
2022-08-20T07:40:31.177Z,100331.76
2022-08-20T07:43:04.835Z,100332.14
2022-08-20T07:45:36.512Z,100335.02
2022-08-20T07:48:13.778Z,100327.00
2022-08-20T07:51:04.843Z,100323.48
2022-08-20T07:53:38.957Z,100315.93
2022-08-20T07:56:13.035Z,100310.84
2022-08-20T07:58:50.450Z,100313.30
2022-08-20T08:01:26.672Z,100318.71
2022-08-20T08:03:59.181Z,100324.94
2022-08-20T08:06:32.674Z,100327.30
2022-08-20T08:09:07.871Z,100328.52
2022-08-20T08:11:46.968Z,100331.87
2022-08-20T08:14:23.590Z,100332.37
2022-08-20T08:16:57.442Z,100330.92
2022-08-20T08:19:34.412Z,100337.09
2022-08-20T08:22:06.416Z,100331.64
2022-08-20T08:24:38.210Z,100329.73
2022-08-20T08:27:10.151Z,100333.42
2022-08-20T08:29:43.381Z,100329.70
2022-08-20T08:32:15.105Z,100333.92
2022-08-20T08:34:48.236Z,100334.89
2022-08-20T08:37:19.934Z,100338.16
2022-08-20T08:39:51.646Z,100341.52
2022-08-20T08:42:29.546Z,100341.33
2022-08-20T08:45:04.456Z,100346.66
2022-08-20T08:47:41.357Z,100347.02
2022-08-20T08:50:38.559Z,100350.09
2022-08-20T08:53:23.531Z,100345.30
2022-08-20T08:55:55.347Z,100346.39
2022-08-20T08:58:28.075Z,100348.04
2022-08-20T09:01:02.088Z,100343.56
2022-08-20T09:03:43.357Z,100343.25
2022-08-20T09:06:20.579Z,100344.03
2022-08-20T09:08:55.498Z,100341.48
2022-08-20T09:11:29.386Z,100342.56
2022-08-20T09:14:01.766Z,100342.31
2022-08-20T09:16:52.283Z,100342.73
2022-08-20T09:19:23.676Z,100346.52
2022-08-20T09:21:53.831Z,100353.94
2022-08-20T09:24:26.193Z,100351.48
2022-08-20T09:26:57.951Z,100352.23
2022-08-20T09:29:30.406Z,100353.48
2022-08-20T09:32:09.333Z,100353.52
2022-08-20T09:34:43.974Z,100355.13
2022-08-20T09:37:16.417Z,100345.89
2022-08-20T09:39:48.362Z,100347.19
2022-08-20T09:42:23.042Z,100348.48
2022-08-20T09:44:55.124Z,100347.81
2022-08-20T09:47:27.764Z,100347.95
2022-08-20T09:49:59.537Z,100346.73
2022-08-20T09:52:40.177Z,100349.23
2022-08-20T09:55:21.290Z,100347.60
2022-08-20T09:57:53.961Z,100353.00
2022-08-20T10:00:25.755Z,100349.78
2022-08-20T10:02:57.415Z,100346.33
2022-08-20T10:05:29.214Z,100344.08
2022-08-20T10:08:01.887Z,100341.80
2022-08-20T10:10:33.605Z,100334.83
2022-08-20T10:13:05.440Z,100338.06
2022-08-20T10:15:37.019Z,100340.58
2022-08-20T10:18:08.977Z,100341.20
2022-08-20T10:20:44.537Z,100341.05
2022-08-20T10:23:16.220Z,100343.49
2022-08-20T10:25:47.847Z,100338.20
2022-08-20T10:28:19.654Z,100339.11
2022-08-20T10:30:51.281Z,100337.98
2022-08-20T10:33:22.963Z,100339.36
2022-08-20T10:35:59.765Z,100346.70
2022-08-20T10:38:31.803Z,100347.02
2022-08-20T10:41:03.459Z,100342.31
2022-08-20T10:43:35.235Z,100341.92
2022-08-20T10:46:07.197Z,100342.28
2022-08-20T10:48:38.964Z,100344.74
2022-08-20T10:51:10.666Z,100346.28
2022-08-20T10:53:43.403Z,100341.84
2022-08-20T10:56:15.778Z,100346.51
2022-08-20T10:58:47.548Z,100348.52
2022-08-20T11:01:31.624Z,100348.09
2022-08-20T11:04:05.284Z,100350.50
2022-08-20T11:06:36.836Z,100351.54
2022-08-20T11:09:09.740Z,100347.27
2022-08-20T11:11:41.540Z,100347.56
2022-08-20T11:14:13.321Z,100343.69
2022-08-20T11:16:44.953Z,100344.59
2022-08-20T11:19:16.650Z,100343.64
2022-08-20T11:21:48.357Z,100340.36
2022-08-20T11:24:20.104Z,100347.02
2022-08-20T11:26:53.741Z,100345.45
2022-08-20T11:29:25.406Z,100345.75
2022-08-20T11:31:57.119Z,100343.84
2022-08-20T11:34:28.846Z,100343.77
2022-08-20T11:37:00.870Z,100340.96
2022-08-20T11:39:32.705Z,100347.08
2022-08-20T11:42:04.506Z,100343.91
2022-08-20T11:44:36.770Z,100339.33
2022-08-20T11:47:21.756Z,100339.84
2022-08-20T11:50:00.018Z,100339.20
2022-08-20T11:52:31.900Z,100337.35
2022-08-20T11:55:03.951Z,100336.66
2022-08-20T11:57:38.235Z,100337.55
2022-08-20T12:00:16.150Z,100341.36
2022-08-20T12:02:47.779Z,100342.80
2022-08-20T12:05:20.231Z,100336.34
2022-08-20T12:07:52.005Z,100332.56
2022-08-20T12:10:26.432Z,100331.73
2022-08-20T12:12:58.549Z,100329.11
2022-08-20T12:15:30.569Z,100327.11
2022-08-20T12:18:02.380Z,100326.17
2022-08-20T12:20:34.139Z,100323.05
2022-08-20T12:23:06.344Z,100323.56
2022-08-20T12:25:38.118Z,100322.68
2022-08-20T12:28:13.172Z,100321.23
2022-08-20T12:30:45.122Z,100327.44
2022-08-20T12:33:16.745Z,100329.02
2022-08-20T12:35:48.425Z,100325.48
2022-08-20T12:38:20.217Z,100322.47
2022-08-20T12:40:52.010Z,100316.52
2022-08-20T12:43:25.232Z,100318.06
2022-08-20T12:45:57.183Z,100317.98
2022-08-20T12:48:28.861Z,100317.74
2022-08-20T12:51:00.622Z,100313.40
2022-08-20T12:53:32.395Z,100315.30
2022-08-20T12:56:09.943Z,100319.66
2022-08-20T12:58:41.530Z,100318.01
2022-08-20T13:01:13.641Z,100313.61
2022-08-20T13:03:45.416Z,100320.06
2022-08-20T13:06:17.107Z,100324.33
2022-08-20T13:08:48.733Z,100327.04
2022-08-20T13:11:20.408Z,100329.80
2022-08-20T13:13:52.224Z,100327.09
2022-08-20T13:16:23.949Z,100330.19
2022-08-20T13:18:55.580Z,100340.36
2022-08-20T13:21:27.567Z,100343.55
2022-08-20T13:23:59.246Z,100345.41
2022-08-20T13:26:30.870Z,100347.52
2022-08-20T13:29:02.552Z,100344.77
2022-08-20T13:31:34.240Z,100340.39
2022-08-20T13:34:06.076Z,100338.27
2022-08-20T13:36:38.163Z,100336.40
2022-08-20T13:39:09.964Z,100337.05
2022-08-20T13:41:41.994Z,100338.17
2022-08-20T13:44:13.526Z,100340.27
2022-08-20T13:46:45.221Z,100344.67
2022-08-20T13:49:16.841Z,100342.98
2022-08-20T13:51:48.599Z,100338.56
2022-08-20T13:54:27.142Z,100332.77
2022-08-20T13:57:10.824Z,100329.72
2022-08-20T13:59:42.344Z,100330.75
2022-08-20T14:02:15.104Z,100335.95
2022-08-20T14:04:47.997Z,100336.02
2022-08-20T14:07:23.345Z,100338.77
2022-08-20T14:09:58.270Z,100344.63
2022-08-20T14:12:31.003Z,100350.27
2022-08-20T14:15:02.755Z,100354.11
2022-08-20T14:17:37.023Z,100353.58
2022-08-20T14:20:12.501Z,100353.09
2022-08-20T14:22:48.180Z,100351.95
2022-08-20T14:25:22.972Z,100350.01
2022-08-20T14:27:55.736Z,100356.08
2022-08-20T14:30:29.849Z,100361.39
2022-08-20T14:33:01.458Z,100371.10
2022-08-20T14:35:33.235Z,100370.64
2022-08-20T14:38:07.613Z,100375.36
2022-08-20T14:40:39.311Z,100378.96
2022-08-20T14:43:11.140Z,100380.88
2022-08-20T14:45:42.784Z,100381.16
2022-08-20T14:48:15.547Z,100377.46
2022-08-20T14:50:47.382Z,100380.07
2022-08-20T14:53:19.570Z,100387.84
2022-08-20T14:55:51.293Z,100390.02
2022-08-20T14:58:23.328Z,100392.13
2022-08-20T15:00:56.847Z,100396.11
2022-08-20T15:03:30.675Z,100394.75
2022-08-20T15:06:02.525Z,100395.56
2022-08-20T15:08:34.188Z,100389.97
2022-08-20T15:11:07.556Z,100387.77
2022-08-20T15:13:39.225Z,100379.81
2022-08-20T15:16:11.139Z,100374.83
2022-08-20T15:18:43.555Z,100375.69
2022-08-20T15:21:19.051Z,100374.83
2022-08-20T15:23:53.797Z,100373.23
2022-08-20T15:26:25.669Z,100372.18
2022-08-20T15:28:57.887Z,100378.20
2022-08-20T15:31:29.817Z,100380.23
2022-08-20T15:34:01.781Z,100376.61
2022-08-20T15:36:34.108Z,100376.20
2022-08-20T15:39:05.914Z,100380.95
2022-08-20T15:41:37.636Z,100386.43
2022-08-20T15:44:09.411Z,100386.16
2022-08-20T15:46:41.117Z,100391.90
2022-08-20T15:49:14.404Z,100388.86
2022-08-20T15:51:48.616Z,100382.65
2022-08-20T15:54:24.163Z,100376.98
2022-08-20T15:57:03.165Z,100378.33
2022-08-20T15:59:53.495Z,100388.84
2022-08-20T16:02:47.549Z,100400.55
2022-08-20T16:05:26.046Z,100407.30
2022-08-20T16:08:12.700Z,100405.91
2022-08-20T16:10:53.822Z,100411.52
2022-08-20T16:13:37.180Z,100415.92
2022-08-20T16:16:12.601Z,100420.34
2022-08-20T16:18:45.745Z,100418.87
2022-08-20T16:21:27.900Z,100417.19
2022-08-20T16:23:59.903Z,100419.46
2022-08-20T16:26:46.031Z,100423.77
2022-08-20T16:29:25.848Z,100431.59
2022-08-20T16:32:02.109Z,100431.41
2022-08-20T16:34:38.597Z,100435.70
2022-08-20T16:37:23.135Z,100438.75
2022-08-20T16:40:00.406Z,100441.95
2022-08-20T16:42:38.514Z,100450.46
2022-08-20T16:45:18.070Z,100449.38
2022-08-20T16:47:51.162Z,100446.48
2022-08-20T16:50:27.741Z,100447.52
2022-08-20T16:52:59.595Z,100444.17
2022-08-20T16:55:31.310Z,100443.23
2022-08-20T16:58:04.358Z,100447.67
2022-08-20T17:00:44.950Z,100446.16
2022-08-20T17:03:38.706Z,100447.34
2022-08-20T17:06:30.726Z,100444.89
2022-08-20T17:09:06.313Z,100441.36
2022-08-20T17:11:40.614Z,100447.31
2022-08-20T17:14:15.239Z,100450.89
2022-08-20T17:16:49.020Z,100456.56
2022-08-20T17:19:29.801Z,100462.73
2022-08-20T17:22:11.623Z,100464.06
2022-08-20T17:24:43.691Z,100468.26
2022-08-20T17:27:28.123Z,100471.30
2022-08-20T17:30:11.794Z,100473.04
2022-08-20T17:32:58.889Z,100470.80
2022-08-20T17:35:34.609Z,100473.89
2022-08-20T17:38:07.036Z,100475.58
2022-08-20T17:40:46.213Z,100477.97
2022-08-20T17:43:29.182Z,100480.52
2022-08-20T17:46:04.380Z,100479.88
2022-08-20T17:48:42.636Z,100481.47
2022-08-20T17:51:19.085Z,100479.43
2022-08-20T17:53:54.396Z,100479.36
2022-08-20T17:56:32.696Z,100479.59
2022-08-20T17:59:10.357Z,100483.75
2022-08-20T18:01:42.526Z,100486.64
2022-08-20T18:04:14.544Z,100487.75
2022-08-20T18:06:53.510Z,100489.02
2022-08-20T18:09:33.534Z,100492.34
2022-08-20T18:12:18.453Z,100497.92
2022-08-20T18:15:12.716Z,100502.82
2022-08-20T18:18:17.640Z,100500.27
2022-08-20T18:21:07.044Z,100504.23
2022-08-20T18:23:42.725Z,100510.36
2022-08-20T18:26:28.008Z,100514.80
2022-08-20T18:29:04.722Z,100514.05
2022-08-20T18:31:45.310Z,100511.24
2022-08-20T18:34:17.044Z,100508.97
2022-08-20T18:37:00.521Z,100510.09
2022-08-20T18:39:38.630Z,100508.30
2022-08-20T18:42:24.116Z,100506.75
2022-08-20T18:44:57.522Z,100505.30
2022-08-20T18:47:41.644Z,100507.50
2022-08-20T18:50:26.162Z,100511.41
2022-08-20T18:53:11.057Z,100512.52
2022-08-20T18:55:46.281Z,100515.38
2022-08-20T18:58:33.226Z,100514.85
2022-08-20T19:01:12.867Z,100512.76
2022-08-20T19:03:49.932Z,100511.23
2022-08-20T19:06:34.766Z,100510.04
2022-08-20T19:09:14.884Z,100510.45
2022-08-20T19:12:01.948Z,100508.70
2022-08-20T19:14:57.758Z,100511.02
2022-08-20T19:17:50.119Z,100513.02
2022-08-20T19:20:25.857Z,100514.04
2022-08-20T19:23:06.088Z,100514.29
2022-08-20T19:25:41.611Z,100512.09
2022-08-20T19:28:24.263Z,100513.06
2022-08-20T19:30:56.190Z,100512.83
2022-08-20T19:33:44.121Z,100516.46
2022-08-20T19:36:20.197Z,100513.34
2022-08-20T19:38:56.918Z,100509.05
2022-08-20T19:41:33.708Z,100502.70
2022-08-20T19:44:05.719Z,100509.33
2022-08-20T19:46:43.833Z,100508.23
2022-08-20T19:49:25.167Z,100507.89
2022-08-20T19:52:09.381Z,100508.29
2022-08-20T19:54:49.629Z,100512.48
2022-08-20T19:57:23.116Z,100513.77
2022-08-20T20:00:00.095Z,100512.02
2022-08-20T20:02:34.113Z,100511.64
2022-08-20T20:05:10.113Z,100512.51
2022-08-20T20:07:45.468Z,100509.06
2022-08-20T20:10:32.462Z,100511.16
2022-08-20T20:13:11.411Z,100507.67
2022-08-20T20:15:44.129Z,100507.15
2022-08-20T20:18:16.383Z,100507.72
2022-08-20T20:20:57.317Z,100506.91
2022-08-20T20:23:45.556Z,100504.27
2022-08-20T20:26:21.096Z,100507.26
2022-08-20T20:28:54.747Z,100506.23
2022-08-20T20:31:29.627Z,100504.92
2022-08-20T20:34:08.532Z,100500.53
2022-08-20T20:36:42.863Z,100500.30
2022-08-20T20:39:30.339Z,100501.97
2022-08-20T20:42:04.427Z,100495.77
2022-08-20T20:44:38.935Z,100496.27
2022-08-20T20:47:19.428Z,100501.96
2022-08-20T20:49:53.732Z,100502.84
2022-08-20T20:52:29.136Z,100499.23
2022-08-20T20:55:22.624Z,100496.87
2022-08-20T20:57:55.618Z,100494.84
2022-08-20T21:00:29.853Z,100493.45
2022-08-20T21:03:02.863Z,100486.00
2022-08-20T21:05:36.071Z,100485.19
2022-08-20T21:08:11.474Z,100478.04
2022-08-20T21:10:44.539Z,100477.19
2022-08-20T21:13:17.289Z,100468.94
2022-08-20T21:15:49.269Z,100467.77
2022-08-20T21:18:25.756Z,100470.36
2022-08-20T21:20:58.491Z,100472.67
2022-08-20T21:23:40.184Z,100476.36
2022-08-20T21:26:14.770Z,100472.52
2022-08-20T21:28:46.798Z,100466.94
2022-08-20T21:31:18.734Z,100465.30
2022-08-20T21:33:50.649Z,100466.90
2022-08-20T21:36:22.780Z,100465.50
2022-08-20T21:38:54.650Z,100467.85
2022-08-20T21:41:30.278Z,100472.02
2022-08-20T21:44:04.823Z,100470.30
2022-08-20T21:46:36.778Z,100471.70
2022-08-20T21:49:08.727Z,100475.71
2022-08-20T21:51:40.556Z,100479.04
2022-08-20T21:54:12.541Z,100481.63
2022-08-20T21:56:46.653Z,100483.27
2022-08-20T21:59:20.917Z,100487.84
2022-08-20T22:01:53.311Z,100489.11
2022-08-20T22:04:25.432Z,100485.35
2022-08-20T22:06:57.679Z,100488.95
2022-08-20T22:09:29.492Z,100493.66
2022-08-20T22:12:02.314Z,100498.77
2022-08-20T22:14:34.422Z,100498.78
2022-08-20T22:17:06.314Z,100502.88
2022-08-20T22:19:38.026Z,100506.80
2022-08-20T22:22:11.421Z,100509.23
2022-08-20T22:24:43.378Z,100510.17
2022-08-20T22:27:16.267Z,100509.54
2022-08-20T22:29:48.063Z,100508.05
2022-08-20T22:32:20.213Z,100505.99
2022-08-20T22:35:05.508Z,100500.98
2022-08-20T22:37:37.207Z,100502.23
2022-08-20T22:40:16.191Z,100506.87
2022-08-20T22:42:47.945Z,100504.98
2022-08-20T22:45:20.421Z,100507.57
2022-08-20T22:47:52.184Z,100505.99
2022-08-20T22:50:26.134Z,100507.25
2022-08-20T22:52:58.140Z,100507.11
2022-08-20T22:55:30.023Z,100506.23
2022-08-20T22:58:02.054Z,100505.99
2022-08-20T23:00:34.224Z,100507.34
2022-08-20T23:03:07.149Z,100506.30
2022-08-20T23:05:39.622Z,100501.74
2022-08-20T23:08:11.636Z,100503.55
2022-08-20T23:10:44.084Z,100506.63
2022-08-20T23:13:15.855Z,100506.79
2022-08-20T23:15:47.763Z,100514.34
2022-08-20T23:18:21.587Z,100515.58
2022-08-20T23:20:57.432Z,100514.71
2022-08-20T23:23:29.599Z,100513.00
2022-08-20T23:26:01.653Z,100510.88
2022-08-20T23:28:33.454Z,100515.64
2022-08-20T23:31:05.073Z,100511.11
2022-08-20T23:33:36.729Z,100509.70
2022-08-20T23:36:11.695Z,100506.30
2022-08-20T23:38:43.625Z,100505.67
2022-08-20T23:41:15.387Z,100500.96
2022-08-20T23:43:46.963Z,100502.54
2022-08-20T23:46:19.305Z,100504.59
2022-08-20T23:48:52.435Z,100505.61
2022-08-20T23:51:24.381Z,100503.80
2022-08-20T23:53:56.290Z,100501.51
2022-08-20T23:56:28.662Z,100503.55
2022-08-20T23:59:00.494Z,100502.21
